• NC Software is proud to announce the release of APDL - Airline Pilot Logbook version 10.0. Click here to view APDL on the Apple App store and install now.
  • Logbook Pro for Apple iOS version 8.1 is now available on the App Store. Major update including signature endorsements and dark/light theme support. Click here to install now.

Interesting watching Storm eye go bye

clr4theapch

Well-known member
Joined
May 2, 2004
Posts
711
Total Time
tons
Just thought some of my dispatch friends out here would find the METARS interesting as the EYE of Ernesto works its way up the coast of Florida...

notice the opposing wind direction and barometic differences between MCO and MLB...Pretty cool...


KMCO

The most recent METAR observation from KMCO in our system was generated at the source at:
2006/08/31 00:01 UTC
The observation is:
KMCO 310001Z 36017G23KT 10SM -RA SCT010 BKN090 OVC110 24/24 A2965
KMLB

The most recent METAR observation from KMLB in our system was generated at the source at:
2006/08/30 23:53 UTC
The observation is:
KMLB 302353Z 15012KT 10SM BKN008 OVC012 25/23 A2957 RMK AO2 RAE42 CIG 006V010 SLP013 P0000 60069 T02500233 10278 20250 56021
KVRB

The most recent METAR observation from KVRB in our system was generated at the source at:
2006/08/31 00:06 UTC
The observation is:
KVRB 310006Z AUTO 21014G19KT 8SM -RA SCT006 BKN010 OVC018 25/24 A2964 RMK AO2 P0001
KPBI

The most recent METAR observation from KPBI in our system was generated at the source at:
2006/08/30 23:53 UTC
The observation is:
KPBI 302353Z 23015KT 4SM -RA BR SCT026 BKN032 OVC041 24/24 A2979 RMK AO2 PK WND 24031/2317 SLP088 P0020 60022 T02440239 10283 20239 53021
KFLL

The most recent METAR observation from KFLL in our system was generated at the source at:
2006/08/30 23:53 UTC
The observation is:
KFLL 302353Z 22013G17KT 10SM FEW018 SCT120 28/22 A2980 RMK AO2 SLP090 60005 T02780222 10278 20256 53005
KMIA

The most recent METAR observation from KMIA in our system was generated at the source at:
2006/08/30 23:53 UTC
The observation is:
KMIA 302353Z 21011KT 10SM FEW020 SCT120 OVC250 27/23 A2982 RMK AO2 SLP099 60004 T02670228 10272 20244 53002
KEYW

The most recent METAR observation from KEYW in our system was generated at the source at:
2006/08/30 23:53 UTC
The observation is:
KEYW 302353Z 25008KT 10SM CLR 29/24 A2986 RMK AO2 SLP112 60000 T02890239 10294 20272 53007
KFMY

The most recent METAR observation from KFMY in our system was generated at the source at:
2006/08/30 23:53 UTC
The observation is:
KFMY 302353Z VRB04KT 10SM FEW028 BKN040 BKN065 26/23 A2977 RMK AO2 RAE42 SLP083 P0011 60054 T02560233 10272 20239 51011
KRSW

The most recent METAR observation from KRSW in our system was generated at the source at:
2006/08/31 00:12 UTC
The observation is:
KRSW 310012Z 29005KT 10SM RA BR FEW021 BKN047 OVC110 25/23 A2978 RMK AO2 P0009
KPIE

The most recent METAR observation from KPIE in our system was generated at the source at:
2006/08/30 23:53 UTC
The observation is:
KPIE 302353Z 28007KT 10SM OVC100 26/23 A2976 RMK AO2 RAE24 SLP077 P0000 60006 T02610233 10300 20256 50006
KTPA

The most recent METAR observation from KTPA in our system was generated at the source at:
2006/08/30 23:53 UTC
The observation is:
KTPA 302353Z 35005KT 10SM FEW020 BKN080 BKN250 26/23 A2975 RMK AO2 RAB2256E27 SLP075 VIRGA E W P0001 60056 T02560233 10300 20250 50005
 

cjdriver

Well-known member
Joined
May 3, 2005
Posts
736
The less intense version of this in the midwest can be flown through (intense low pressure system), and you can pick the side of it that gives you the favorable winds and really pick up some ground speed. PRetty cool to experience if you're into observing weather phenomena.
 
Top